Terminal Aerodrome Forecast
Issued by NWS

Home | Current Version | Previous Version | Text Only | Print | Product List | Glossary On
Versions: 1 2 3 4 5 6 7 8 9 10 11 12 13
451
FTUS44 KCRP 222320
TAFALI
TAF
KALI 222320Z 2300/2324 14014KT P6SM FEW070
     FM230300 16008KT P6SM SCT015
     FM231500 17015G21KT P6SM FEW040=

USA.gov is the U.S. government's official web portal to all federal, state and local government web resources and services.